Time;durP1;ratioP1;P1;durP2;ratioP2;P2;SDS_P1;SDS_P2;PMS_P1;PMS_P2;Temp;Humidity;BMP_temperature;BMP_pressure;BME280_temperature;BME280_humidity;BME280_pressure;Samples;Min_cycle;Max_cycle;Signal;HPM_P1;HPM_P2
2023/02/13 00:00:50;;;;;;;22.40;8.75;;;1.60;99.90;;;;;;8230476;28;20023;-80
2023/02/13 00:04:51;;;;;;;17.23;7.95;;;1.60;99.90;;;;;;8231175;28;20480;-80
2023/02/13 00:08:52;;;;;;;25.58;9.30;;;1.70;99.90;;;;;;8230205;28;20030;-80
2023/02/13 00:12:52;;;;;;;18.10;8.52;;;1.80;99.90;;;;;;8228379;28;20042;-80
2023/02/13 00:16:53;;;;;;;22.60;8.98;;;1.90;99.90;;;;;;8228738;28;20066;-79
2023/02/13 00:21:03;;;;;;;16.40;7.88;;;2.00;99.90;;;;;;8233174;28;20653;-79
2023/02/13 00:25:05;;;;;;;20.05;8.77;;;1.90;99.90;;;;;;8234439;28;20035;-79
2023/02/13 00:29:06;;;;;;;19.30;8.63;;;1.90;99.90;;;;;;8235799;28;20062;-80
2023/02/13 00:33:06;;;;;;;22.92;9.70;;;2.00;99.90;;;;;;8235623;28;20035;-79
2023/02/13 00:37:07;;;;;;;21.73;8.63;;;1.90;99.90;;;;;;8236890;28;20419;-80
2023/02/13 00:41:08;;;;;;;18.83;8.32;;;1.90;99.90;;;;;;8236785;28;20042;-80
2023/02/13 00:45:09;;;;;;;14.55;5.80;;;1.80;99.90;;;;;;8236418;28;20562;-80
2023/02/13 00:49:09;;;;;;;23.92;9.52;;;1.80;99.90;;;;;;8234082;28;20042;-80
2023/02/13 00:53:10;;;;;;;19.83;8.93;;;1.80;99.90;;;;;;8234825;28;20023;-80
2023/02/13 00:57:10;;;;;;;20.42;8.48;;;1.90;99.90;;;;;;8236228;28;20621;-79
2023/02/13 01:01:11;;;;;;;10.63;4.72;;;1.80;99.90;;;;;;8235974;28;20483;-80
2023/02/13 01:05:11;;;;;;;18.15;9.07;;;1.80;99.90;;;;;;8234255;28;20154;-80
2023/02/13 01:09:12;;;;;;;17.25;7.15;;;1.80;99.90;;;;;;8235939;28;20229;-79
2023/02/13 01:13:14;;;;;;;17.17;8.48;;;1.80;99.90;;;;;;8234019;28;20093;-80
2023/02/13 01:17:15;;;;;;;16.13;6.47;;;1.80;99.90;;;;;;8234346;28;20023;-80
2023/02/13 01:21:18;;;;;;;9.95;3.30;;;1.80;99.90;;;;;;8233155;28;20181;-78
2023/02/13 01:25:19;;;;;;;18.48;8.98;;;1.80;99.90;;;;;;8230456;28;20049;-79
2023/02/13 01:29:20;;;;;;;22.95;8.95;;;1.80;99.90;;;;;;8232021;28;20023;-78
2023/02/13 01:33:22;;;;;;;19.02;8.82;;;1.80;99.90;;;;;;8232501;28;20138;-80
2023/02/13 01:37:23;;;;;;;17.08;7.95;;;1.90;99.90;;;;;;8231780;28;20026;-79
2023/02/13 01:41:25;;;;;;;16.08;7.57;;;2.00;99.90;;;;;;8230192;28;20398;-78
2023/02/13 01:45:28;;;;;;;19.42;8.27;;;2.00;99.90;;;;;;8231493;28;20043;-80
2023/02/13 01:49:29;;;;;;;17.08;7.88;;;2.00;99.90;;;;;;8231220;28;20162;-79
2023/02/13 01:53:34;;;;;;;15.60;7.28;;;2.00;99.90;;;;;;8231232;28;20174;-77
2023/02/13 01:57:38;;;;;;;23.58;9.73;;;2.10;99.90;;;;;;8230638;28;20018;-79
2023/02/13 02:01:39;;;;;;;19.35;9.10;;;2.10;99.90;;;;;;8229058;28;20027;-79
2023/02/13 02:05:41;;;;;;;25.50;8.85;;;2.10;99.90;;;;;;8231761;28;20495;-79
2023/02/13 02:09:43;;;;;;;17.65;8.23;;;2.00;99.90;;;;;;8231145;28;20023;-79
2023/02/13 02:13:45;;;;;;;18.02;7.05;;;1.80;99.90;;;;;;8231780;28;20027;-79
2023/02/13 02:17:45;;;;;;;24.50;10.23;;;1.80;99.90;;;;;;8230744;28;20023;-79
2023/02/13 02:21:58;;;;;;;25.98;9.50;;;1.80;99.90;;;;;;8230365;28;20105;-79
2023/02/13 02:26:07;;;;;;;18.63;8.10;;;1.90;99.90;;;;;;8230880;28;20633;-79
2023/02/13 02:30:26;;;;;;;22.08;9.02;;;1.90;99.90;;;;;;8224390;28;20049;-79
2023/02/13 02:34:57;;;;;;;17.25;8.65;;;1.90;99.90;;;;;;8228719;28;20042;-79
2023/02/13 02:39:31;;;;;;;17.95;8.25;;;1.90;99.90;;;;;;8229961;28;20027;-79
2023/02/13 02:43:50;;;;;;;18.88;8.48;;;2.00;99.90;;;;;;8230539;28;20027;-79
2023/02/13 02:52:34;;;;;;;24.40;10.00;;;1.90;99.90;;;;;;8227389;28;20041;-79
2023/02/13 02:56:41;;;;;;;22.05;9.02;;;1.90;99.90;;;;;;8229714;28;20027;-79
2023/02/13 03:13:50;;;;;;;24.52;9.25;;;1.80;99.90;;;;;;8228490;28;20562;-79
2023/02/13 03:22:29;;;;;;;32.07;9.00;;;1.80;99.90;;;;;;8227712;28;20045;-79
2023/02/13 03:26:44;;;;;;;39.00;9.63;;;1.90;99.90;;;;;;8228513;28;20539;-80
2023/02/13 03:30:51;;;;;;;45.25;8.50;;;2.00;99.90;;;;;;8229319;28;20031;-78
2023/02/13 03:39:46;;;;;;;58.53;10.10;;;1.90;99.90;;;;;;8230475;28;20050;-79
2023/02/13 03:44:25;;;;;;;26.05;8.45;;;1.90;99.90;;;;;;8231168;28;20078;-81
2023/02/13 03:52:50;;;;;;;34.40;9.13;;;1.50;99.90;;;;;;8234264;28;20029;-80
2023/02/13 04:01:15;;;;;;;15.23;8.30;;;1.50;99.90;;;;;;8234478;28;20041;-81
2023/02/13 04:05:21;;;;;;;15.82;7.43;;;1.50;99.90;;;;;;8238546;28;20266;-81
2023/02/13 04:09:24;;;;;;;16.70;8.38;;;1.40;99.90;;;;;;8238175;28;20584;-81
2023/02/13 04:13:34;;;;;;;20.13;9.15;;;1.40;99.90;;;;;;8236964;28;20542;-81
2023/02/13 04:17:40;;;;;;;25.35;9.65;;;1.40;99.90;;;;;;8237338;28;20019;-81
2023/02/13 04:21:41;;;;;;;34.92;9.32;;;1.50;99.90;;;;;;8237638;28;20082;-81
2023/02/13 04:25:45;;;;;;;20.50;8.43;;;1.70;99.90;;;;;;8237091;28;20499;-80
2023/02/13 04:29:46;;;;;;;23.45;9.68;;;1.60;99.90;;;;;;8243366;28;20073;-81
2023/02/13 04:33:46;;;;;;;18.05;8.40;;;1.60;99.90;;;;;;8236497;28;20038;-81
2023/02/13 04:37:47;;;;;;;21.27;9.32;;;1.60;99.90;;;;;;8236294;28;20041;-81
2023/02/13 04:41:47;;;;;;;21.17;9.77;;;1.80;99.90;;;;;;8235912;28;20046;-80
2023/02/13 04:45:48;;;;;;;24.40;10.00;;;2.20;99.90;;;;;;8235946;28;20027;-80
2023/02/13 04:49:49;;;;;;;21.05;8.68;;;2.30;99.90;;;;;;8235152;28;20026;-81
2023/02/13 04:53:49;;;;;;;20.55;10.10;;;2.10;99.90;;;;;;8235740;28;20109;-81
2023/02/13 04:57:54;;;;;;;25.73;9.30;;;2.10;99.90;;;;;;8235139;28;20065;-81
2023/02/13 05:01:55;;;;;;;22.48;9.43;;;2.10;99.90;;;;;;8234474;28;20077;-80
2023/02/13 05:05:55;;;;;;;20.65;8.00;;;2.20;99.90;;;;;;8234978;28;20022;-81
2023/02/13 05:09:56;;;;;;;19.08;6.97;;;2.00;99.90;;;;;;8236169;28;20085;-81
2023/02/13 05:13:56;;;;;;;24.20;9.98;;;2.30;99.90;;;;;;8235498;28;20026;-81
2023/02/13 05:17:57;;;;;;;18.75;8.80;;;2.00;99.90;;;;;;8235645;28;20094;-80
2023/02/13 05:26:17;;;;;;;20.80;8.00;;;2.20;99.90;;;;;;8236467;28;20041;-80
2023/02/13 05:30:18;;;;;;;25.15;9.48;;;2.20;99.90;;;;;;8233235;28;20483;-79
2023/02/13 05:34:20;;;;;;;26.75;9.18;;;1.90;99.90;;;;;;8235784;28;20027;-80
2023/02/13 05:38:20;;;;;;;23.48;8.98;;;2.00;99.90;;;;;;8234540;28;20031;-80
2023/02/13 05:42:21;;;;;;;19.55;9.02;;;1.80;99.90;;;;;;8234948;28;20094;-78
2023/02/13 05:46:21;;;;;;;17.35;8.27;;;1.60;99.90;;;;;;8235795;28;20038;-80
2023/02/13 05:50:22;;;;;;;20.77;9.20;;;1.60;99.90;;;;;;8235549;28;20483;-79
2023/02/13 05:54:23;;;;;;;21.27;8.88;;;1.50;99.90;;;;;;8234207;28;20086;-80
2023/02/13 05:58:23;;;;;;;32.50;11.75;;;1.60;99.90;;;;;;8233215;28;20023;-80
2023/02/13 06:02:24;;;;;;;28.92;11.40;;;1.90;99.90;;;;;;8231543;28;20015;-81
2023/02/13 06:06:24;;;;;;;25.67;11.05;;;2.00;99.90;;;;;;8234438;28;20081;-81
2023/02/13 06:10:25;;;;;;;25.17;10.32;;;2.00;99.90;;;;;;8235657;28;20031;-81
2023/02/13 06:14:25;;;;;;;24.00;9.98;;;2.20;99.90;;;;;;8234205;28;20483;-81
2023/02/13 06:18:26;;;;;;;22.02;9.77;;;2.00;99.90;;;;;;8233440;28;20022;-81
2023/02/13 06:22:26;;;;;;;27.48;11.20;;;2.30;99.90;;;;;;8228852;28;20415;-80
2023/02/13 06:26:27;;;;;;;24.27;10.32;;;2.30;99.90;;;;;;8234667;28;20074;-80
2023/02/13 06:30:28;;;;;;;28.52;10.88;;;2.10;99.90;;;;;;8234370;28;21847;-80
2023/02/13 06:34:28;;;;;;;25.42;11.13;;;2.00;99.90;;;;;;8235719;28;20030;-80
2023/02/13 06:38:29;;;;;;;25.67;10.48;;;2.00;99.90;;;;;;8236634;28;20030;-80
2023/02/13 06:42:30;;;;;;;20.13;9.85;;;2.00;99.90;;;;;;8235255;28;20538;-79
2023/02/13 06:46:30;;;;;;;24.77;10.15;;;1.80;99.90;;;;;;8234979;28;20096;-80
2023/02/13 06:50:31;;;;;;;30.40;9.68;;;1.70;99.90;;;;;;8234312;28;20483;-80
2023/02/13 06:54:34;;;;;;;19.63;8.90;;;1.70;99.90;;;;;;8233949;28;20031;-80
2023/02/13 06:58:35;;;;;;;19.02;8.65;;;1.70;99.90;;;;;;8233187;28;20526;-80
2023/02/13 07:02:36;;;;;;;21.77;9.23;;;1.70;99.90;;;;;;8231293;28;20019;-80
2023/02/13 07:06:37;;;;;;;28.73;11.25;;;1.80;99.90;;;;;;8233745;28;20463;-80
2023/02/13 07:10:38;;;;;;;23.80;9.35;;;2.10;99.90;;;;;;8232885;28;20030;-80
2023/02/13 07:14:40;;;;;;;27.92;10.95;;;1.90;99.90;;;;;;8225564;28;20039;-80
2023/02/13 07:18:40;;;;;;;22.95;9.70;;;2.20;99.90;;;;;;8237438;28;20030;-80
2023/02/13 07:22:41;;;;;;;26.08;10.93;;;2.10;99.90;;;;;;8233229;28;20022;-80
2023/02/13 07:26:41;;;;;;;24.85;8.98;;;2.10;99.90;;;;;;8234837;28;20030;-80
2023/02/13 07:30:42;;;;;;;35.95;10.10;;;2.20;99.90;;;;;;8233207;28;20034;-80
2023/02/13 07:34:42;;;;;;;34.13;10.55;;;2.00;99.90;;;;;;8236658;28;20126;-81
2023/02/13 07:38:43;;;;;;;27.13;10.77;;;2.50;99.90;;;;;;8231624;28;20093;-80
2023/02/13 07:42:43;;;;;;;21.85;8.48;;;2.60;99.90;;;;;;8234047;28;20050;-80
2023/02/13 07:46:44;;;;;;;33.00;9.10;;;2.60;99.90;;;;;;8237318;28;20023;-80
2023/02/13 07:50:44;;;;;;;22.88;9.93;;;2.40;99.90;;;;;;8233268;28;20034;-80
2023/02/13 07:54:48;;;;;;;17.67;8.18;;;2.50;99.90;;;;;;8234860;28;20031;-80
2023/02/13 07:58:48;;;;;;;21.40;8.98;;;2.60;99.90;;;;;;8234778;28;20065;-80
2023/02/13 08:02:49;;;;;;;11.05;5.93;;;2.30;99.90;;;;;;8230664;28;20023;-80
2023/02/13 08:06:49;;;;;;;20.33;9.05;;;2.50;99.90;;;;;;8233577;28;20038;-80
2023/02/13 08:15:14;;;;;;;21.58;9.70;;;2.10;99.90;;;;;;8235625;28;20085;-80
2023/02/13 08:19:14;;;;;;;22.13;9.60;;;2.30;99.90;;;;;;8231611;28;20033;-80
2023/02/13 08:23:15;;;;;;;19.42;7.90;;;2.50;99.90;;;;;;8232019;28;20391;-80
2023/02/13 08:27:16;;;;;;;25.67;9.65;;;2.60;99.90;;;;;;8231213;28;20023;-79
2023/02/13 08:31:16;;;;;;;24.98;9.30;;;2.50;99.90;;;;;;8230209;28;20547;-79
2023/02/13 08:35:17;;;;;;;17.85;7.93;;;2.30;99.90;;;;;;8231632;28;20027;-79
2023/02/13 08:39:17;;;;;;;20.52;8.45;;;2.60;99.90;;;;;;8232730;28;20034;-78
2023/02/13 08:43:18;;;;;;;16.70;7.53;;;2.50;99.90;;;;;;8239630;28;20038;-81
2023/02/13 08:47:18;;;;;;;13.85;6.75;;;2.70;99.90;;;;;;8240520;28;20106;-80
2023/02/13 08:51:19;;;;;;;17.58;7.45;;;2.70;99.90;;;;;;8238942;28;20612;-81
2023/02/13 08:55:20;;;;;;;20.42;7.28;;;2.60;99.90;;;;;;8238888;28;20594;-81
2023/02/13 08:59:21;;;;;;;18.45;8.60;;;2.50;99.90;;;;;;8239603;28;20598;-81
2023/02/13 09:03:22;;;;;;;16.20;7.60;;;2.60;99.90;;;;;;8238760;28;20051;-81
2023/02/13 09:07:22;;;;;;;15.60;7.10;;;2.90;99.90;;;;;;8240339;28;20033;-81
2023/02/13 09:11:23;;;;;;;17.85;7.97;;;3.10;99.90;;;;;;8239674;28;20051;-81
2023/02/13 09:15:24;;;;;;;19.80;8.27;;;3.00;99.90;;;;;;8237352;28;20138;-81
2023/02/13 09:19:24;;;;;;;15.55;7.22;;;2.80;99.90;;;;;;8238746;28;20073;-82
2023/02/13 09:23:25;;;;;;;15.15;7.63;;;2.90;99.90;;;;;;8240019;28;20019;-82
2023/02/13 09:27:26;;;;;;;18.80;8.32;;;3.10;99.90;;;;;;8236077;28;20038;-80
2023/02/13 09:31:26;;;;;;;16.13;8.43;;;3.30;99.90;;;;;;8237875;28;20037;-81
2023/02/13 09:35:28;;;;;;;11.27;6.40;;;3.30;99.90;;;;;;8237301;28;20078;-81
2023/02/13 09:39:28;;;;;;;18.52;8.55;;;3.50;99.90;;;;;;8236510;28;20204;-82
2023/02/13 09:43:36;;;;;;;19.25;7.95;;;3.50;99.90;;;;;;8239636;28;20030;-82
2023/02/13 09:47:40;;;;;;;13.38;7.60;;;3.70;99.90;;;;;;8236203;28;20042;-81
2023/02/13 09:51:43;;;;;;;14.98;7.63;;;3.80;99.90;;;;;;8235995;28;20023;-82
2023/02/13 09:55:55;;;;;;;15.23;7.32;;;3.60;99.90;;;;;;8239151;28;20035;-82
2023/02/13 10:00:17;;;;;;;13.70;7.68;;;3.50;99.90;;;;;;8238144;28;20500;-82
2023/02/13 10:04:26;;;;;;;14.07;7.05;;;3.70;99.90;;;;;;8239477;28;20026;-82
2023/02/13 10:08:51;;;;;;;14.00;6.83;;;3.70;99.90;;;;;;8239310;28;20081;-81
2023/02/13 10:13:15;;;;;;;13.00;6.07;;;3.80;99.90;;;;;;8261352;28;20023;-82
2023/02/13 10:17:39;;;;;;;16.25;7.50;;;3.80;99.90;;;;;;8268922;28;20042;-81
2023/02/13 10:21:49;;;;;;;14.18;7.60;;;3.90;99.90;;;;;;8231009;28;20054;-81
2023/02/13 10:25:58;;;;;;;17.55;9.38;;;3.90;99.90;;;;;;8232015;28;20101;-81
2023/02/13 10:30:11;;;;;;;14.77;6.68;;;3.90;99.90;;;;;;8223819;28;20027;-80
2023/02/13 10:34:16;;;;;;;16.17;7.78;;;4.00;99.90;;;;;;8225886;28;20043;-81
2023/02/13 10:38:19;;;;;;;14.38;6.82;;;4.20;99.90;;;;;;8228959;28;20023;-81
2023/02/13 10:42:25;;;;;;;17.83;7.85;;;4.20;99.90;;;;;;8224792;28;20027;-82
2023/02/13 10:46:46;;;;;;;18.35;9.02;;;4.10;99.90;;;;;;8222117;28;20459;-81
2023/02/13 10:51:12;;;;;;;18.42;8.63;;;4.20;99.90;;;;;;8228333;28;20034;-81
2023/02/13 10:55:18;;;;;;;15.55;7.72;;;4.30;99.90;;;;;;8228210;28;20038;-80
2023/02/13 10:59:49;;;;;;;19.48;8.80;;;4.20;99.90;;;;;;8230046;28;20077;-81
2023/02/13 11:04:06;;;;;;;17.70;9.00;;;4.40;99.90;;;;;;8231621;28;20029;-80
2023/02/13 11:08:16;;;;;;;18.27;8.55;;;4.50;99.90;;;;;;8223995;28;20027;-80
2023/02/13 11:12:30;;;;;;;23.05;10.10;;;4.60;99.90;;;;;;8229142;28;20027;-80
2023/02/13 11:16:55;;;;;;;21.38;9.18;;;4.50;99.90;;;;;;8227002;28;20421;-80
2023/02/13 11:21:01;;;;;;;24.20;10.32;;;4.20;99.90;;;;;;8229550;28;20225;-81
2023/02/13 11:25:24;;;;;;;17.85;9.05;;;4.40;99.90;;;;;;8230234;28;20063;-81
2023/02/13 11:29:33;;;;;;;19.17;9.18;;;4.50;99.90;;;;;;8227602;28;20137;-80
2023/02/13 11:33:33;;;;;;;17.65;8.93;;;4.80;99.90;;;;;;8227186;28;20396;-79
2023/02/13 11:37:34;;;;;;;17.48;8.45;;;4.80;99.90;;;;;;8231102;28;20031;-81
2023/02/13 11:41:43;;;;;;;17.58;8.23;;;4.90;99.90;;;;;;8229520;28;20033;-81
2023/02/13 11:45:44;;;;;;;15.17;8.23;;;4.80;99.90;;;;;;8228022;28;20732;-80
2023/02/13 11:49:46;;;;;;;19.08;9.60;;;4.80;99.90;;;;;;8221229;28;20023;-81
2023/02/13 11:53:47;;;;;;;23.23;10.65;;;4.70;99.90;;;;;;8210869;28;20047;-80
2023/02/13 11:57:56;;;;;;;17.88;8.70;;;4.60;99.90;;;;;;8211108;28;20599;-81
2023/02/13 12:02:24;;;;;;;14.38;7.47;;;4.70;99.90;;;;;;8219111;28;20100;-81
2023/02/13 12:06:25;;;;;;;29.15;11.82;;;4.40;99.90;;;;;;8220962;28;20038;-79
2023/02/13 12:10:30;;;;;;;23.65;10.45;;;4.10;99.90;;;;;;8213115;28;20384;-81
2023/02/13 12:14:36;;;;;;;22.52;10.57;;;4.40;99.90;;;;;;8212309;28;20027;-79
2023/02/13 12:18:41;;;;;;;29.73;12.48;;;4.50;99.90;;;;;;8222692;28;20027;-79
2023/02/13 12:23:00;;;;;;;23.48;11.45;;;4.60;99.90;;;;;;8228337;28;20018;-80
2023/02/13 12:27:39;;;;;;;21.17;9.88;;;4.70;99.90;;;;;;8231377;28;20089;-80
2023/02/13 12:32:06;;;;;;;24.60;11.80;;;4.70;99.90;;;;;;8231157;28;20075;-79
2023/02/13 12:36:32;;;;;;;16.52;8.48;;;4.50;99.90;;;;;;8230161;28;20034;-79
2023/02/13 12:40:45;;;;;;;19.77;9.30;;;4.40;99.90;;;;;;8229383;28;20031;-80
2023/02/13 12:45:02;;;;;;;23.25;10.13;;;4.30;99.90;;;;;;8232789;28;20027;-79
2023/02/13 12:49:15;;;;;;;21.83;9.38;;;4.20;99.90;;;;;;8232069;28;20070;-80
2023/02/13 12:53:41;;;;;;;24.00;11.40;;;4.50;99.90;;;;;;8231209;28;20025;-80
2023/02/13 12:58:07;;;;;;;25.88;10.52;;;4.70;99.90;;;;;;8229424;28;20034;-80
2023/02/13 13:02:37;;;;;;;25.10;11.82;;;4.90;99.90;;;;;;8219953;28;20737;-80
2023/02/13 13:06:56;;;;;;;15.67;8.27;;;4.90;99.90;;;;;;8217716;28;20035;-80
2023/02/13 13:11:23;;;;;;;23.10;10.75;;;4.90;99.90;;;;;;8214071;28;20042;-78
2023/02/13 13:15:39;;;;;;;25.52;11.48;;;4.50;99.90;;;;;;8218402;28;20034;-80
2023/02/13 13:20:21;;;;;;;24.95;11.68;;;4.70;99.90;;;;;;8216435;28;20166;-79
2023/02/13 13:24:41;;;;;;;21.77;10.52;;;5.00;99.90;;;;;;8211503;28;20121;-78
2023/02/13 13:28:45;;;;;;;13.57;7.00;;;4.70;99.90;;;;;;8224132;28;20031;-81
2023/02/13 13:32:50;;;;;;;20.20;9.90;;;4.50;99.90;;;;;;8218704;28;20046;-80
2023/02/13 13:37:05;;;;;;;22.35;9.20;;;4.40;99.90;;;;;;8217809;28;20031;-80
2023/02/13 13:41:29;;;;;;;15.88;7.28;;;4.30;99.90;;;;;;8224959;28;20023;-77
2023/02/13 13:46:07;;;;;;;4.68;2.67;;;4.30;99.90;;;;;;8221197;28;20512;-81
2023/02/13 13:50:23;;;;;;;17.90;8.68;;;4.00;99.90;;;;;;8216124;28;20094;-80
2023/02/13 13:54:32;;;;;;;20.98;9.98;;;4.00;99.90;;;;;;8235877;28;20391;-81
2023/02/13 13:58:41;;;;;;;2.22;1.52;;;4.20;99.90;;;;;;8226915;28;20404;-80
2023/02/13 14:02:43;;;;;;;21.10;9.23;;;4.10;99.90;;;;;;8215838;28;20050;-80
2023/02/13 14:06:44;;;;;;;25.45;11.18;;;4.10;99.90;;;;;;8217005;28;20105;-81
2023/02/13 14:10:56;;;;;;;23.80;11.18;;;4.30;99.90;;;;;;8226989;28;20062;-80
2023/02/13 14:15:07;;;;;;;19.52;9.52;;;4.80;99.90;;;;;;8231467;28;20029;-78
2023/02/13 14:19:38;;;;;;;27.73;11.10;;;5.10;99.90;;;;;;8240671;28;20027;-79
2023/02/13 14:23:41;;;;;;;22.20;10.45;;;4.60;99.90;;;;;;8237648;28;20027;-79
2023/02/13 14:27:42;;;;;;;26.15;11.45;;;4.90;99.90;;;;;;8237898;28;20661;-79
2023/02/13 14:32:05;;;;;;;27.52;12.27;;;4.90;99.90;;;;;;8237290;28;20035;-80
2023/02/13 14:36:17;;;;;;;28.35;12.15;;;4.90;99.90;;;;;;8253201;28;20038;-80
2023/02/13 14:40:18;;;;;;;21.98;10.63;;;5.00;99.90;;;;;;8234592;28;20019;-80
2023/02/13 14:44:45;;;;;;;28.58;11.57;;;5.40;99.90;;;;;;8236177;28;20118;-80
2023/02/13 14:48:57;;;;;;;14.88;7.13;;;5.30;99.90;;;;;;8236071;28;20043;-80
2023/02/13 14:53:02;;;;;;;24.88;10.32;;;4.80;99.90;;;;;;8238364;28;20027;-79
2023/02/13 14:57:22;;;;;;;19.75;9.18;;;4.40;99.90;;;;;;8238346;28;20046;-79
2023/02/13 15:01:29;;;;;;;22.50;10.27;;;4.10;99.90;;;;;;8236601;28;20047;-80
2023/02/13 15:05:34;;;;;;;28.33;10.40;;;4.00;99.90;;;;;;8248242;28;20117;-80
2023/02/13 15:09:40;;;;;;;23.85;10.23;;;4.00;99.90;;;;;;8234913;28;20027;-80
2023/02/13 15:13:40;;;;;;;11.02;5.68;;;4.10;99.90;;;;;;8234478;28;20031;-80
2023/02/13 15:17:41;;;;;;;23.80;9.98;;;3.90;99.90;;;;;;8235182;28;20058;-79
2023/02/13 15:21:51;;;;;;;20.58;9.55;;;3.70;99.90;;;;;;8238814;28;20027;-80
2023/02/13 15:26:00;;;;;;;19.90;8.07;;;3.60;99.90;;;;;;8241203;28;20093;-80
2023/02/13 15:30:03;;;;;;;22.77;9.97;;;3.60;99.90;;;;;;8242383;28;20031;-80
2023/02/13 15:34:17;;;;;;;25.88;11.13;;;3.50;99.90;;;;;;8238957;28;20035;-78
2023/02/13 15:38:28;;;;;;;19.40;9.02;;;3.50;99.90;;;;;;8237192;28;20019;-80
2023/02/13 15:42:29;;;;;;;22.88;9.40;;;3.50;99.90;;;;;;8233861;28;20077;-80
2023/02/13 15:46:32;;;;;;;16.88;7.95;;;3.40;99.90;;;;;;8242424;28;20511;-80
2023/02/13 15:50:35;;;;;;;18.73;8.50;;;3.40;99.90;;;;;;8241227;28;20030;-81
2023/02/13 15:54:35;;;;;;;19.98;9.50;;;3.40;99.90;;;;;;8240408;28;20033;-79
2023/02/13 15:58:36;;;;;;;22.10;9.95;;;3.30;99.90;;;;;;8229346;28;20019;-79
2023/02/13 16:02:46;;;;;;;20.58;9.02;;;3.20;99.90;;;;;;8221023;28;20034;-80
2023/02/13 16:06:50;;;;;;;18.88;9.50;;;3.10;99.90;;;;;;8219073;28;20078;-80
2023/02/13 16:11:26;;;;;;;27.88;11.43;;;3.10;99.90;;;;;;8217744;28;20114;-79
2023/02/13 16:15:28;;;;;;;21.83;9.38;;;3.00;99.90;;;;;;8217966;28;20121;-79
2023/02/13 16:19:53;;;;;;;19.20;8.75;;;3.00;99.90;;;;;;8217653;28;20077;-80
2023/02/13 16:23:59;;;;;;;22.05;9.35;;;2.90;99.90;;;;;;8214335;28;20031;-80
2023/02/13 16:28:04;;;;;;;23.52;10.43;;;2.90;99.90;;;;;;8220601;28;20106;-80
2023/02/13 16:32:16;;;;;;;21.45;9.80;;;2.90;99.90;;;;;;8224371;28;20026;-79
2023/02/13 16:36:26;;;;;;;20.17;9.48;;;2.90;99.90;;;;;;8229902;28;20026;-79
2023/02/13 16:40:41;;;;;;;15.93;8.80;;;3.00;99.90;;;;;;8234159;28;20030;-79
2023/02/13 16:44:42;;;;;;;20.65;7.75;;;2.90;99.90;;;;;;8233210;28;20030;-80
2023/02/13 16:48:56;;;;;;;18.85;8.55;;;2.80;99.90;;;;;;8229868;28;20022;-77
2023/02/13 16:53:02;;;;;;;26.45;10.35;;;2.70;99.90;;;;;;8235473;28;20038;-80
2023/02/13 16:57:13;;;;;;;25.52;11.20;;;2.70;99.90;;;;;;8229086;28;20027;-80
2023/02/13 17:01:16;;;;;;;23.42;11.27;;;2.70;99.90;;;;;;8219384;28;20033;-80
2023/02/13 17:05:23;;;;;;;23.92;10.85;;;2.80;99.90;;;;;;8222159;28;20018;-79
2023/02/13 17:09:23;;;;;;;25.23;9.88;;;3.00;99.90;;;;;;8222433;28;20065;-81
2023/02/13 17:13:24;;;;;;;25.58;9.43;;;2.90;99.90;;;;;;8223665;28;20117;-81
2023/02/13 17:17:27;;;;;;;18.95;9.00;;;2.90;99.90;;;;;;8223245;28;20026;-81
2023/02/13 17:21:28;;;;;;;24.20;11.13;;;2.70;99.90;;;;;;8225000;28;20512;-81
2023/02/13 17:25:38;;;;;;;21.30;8.82;;;2.70;99.90;;;;;;8216868;28;20030;-81
2023/02/13 17:29:38;;;;;;;23.42;9.55;;;2.80;99.90;;;;;;8224545;28;20532;-81
2023/02/13 17:33:39;;;;;;;22.48;10.77;;;2.80;99.90;;;;;;8225827;28;20042;-81
2023/02/13 17:37:42;;;;;;;21.17;9.93;;;2.80;99.90;;;;;;8227278;28;20019;-80
2023/02/13 17:41:42;;;;;;;26.48;10.52;;;2.60;99.90;;;;;;8226382;28;20031;-81
2023/02/13 17:45:44;;;;;;;28.77;11.55;;;2.60;99.90;;;;;;8235982;28;20505;-81
2023/02/13 17:49:46;;;;;;;26.98;11.25;;;2.90;99.90;;;;;;8227708;28;20554;-81
2023/02/13 17:53:49;;;;;;;22.40;10.63;;;2.80;99.90;;;;;;8218945;28;20027;-81
2023/02/13 17:57:50;;;;;;;24.63;10.55;;;2.50;99.90;;;;;;8220547;28;20113;-81
2023/02/13 18:01:54;;;;;;;20.05;10.10;;;2.40;99.90;;;;;;8229182;28;20054;-80
2023/02/13 18:05:54;;;;;;;24.52;11.13;;;2.80;99.90;;;;;;8221923;28;20050;-80
2023/02/13 18:09:55;;;;;;;19.60;9.02;;;2.80;99.90;;;;;;8229759;28;20023;-80
2023/02/13 18:13:56;;;;;;;28.15;11.60;;;3.00;99.90;;;;;;8221207;28;20129;-80
2023/02/13 18:17:56;;;;;;;24.30;10.77;;;2.90;99.90;;;;;;8227177;28;20027;-81
2023/02/13 18:21:57;;;;;;;25.83;11.70;;;2.70;99.90;;;;;;8226280;28;20050;-81
2023/02/13 18:26:06;;;;;;;25.15;10.23;;;2.70;99.90;;;;;;8228731;28;20027;-81
2023/02/13 18:30:08;;;;;;;26.85;11.70;;;2.80;99.90;;;;;;8231108;28;20162;-80
2023/02/13 18:34:08;;;;;;;25.75;10.65;;;2.60;99.90;;;;;;8232473;28;20041;-80
2023/02/13 18:38:09;;;;;;;20.85;9.93;;;2.50;99.90;;;;;;8233092;28;20033;-81
2023/02/13 18:42:11;;;;;;;24.42;10.93;;;2.50;99.90;;;;;;8228837;28;20031;-80
2023/02/13 18:46:12;;;;;;;22.88;9.48;;;2.60;99.90;;;;;;8229925;28;20037;-79
2023/02/13 18:50:13;;;;;;;18.08;8.55;;;2.50;99.90;;;;;;8228809;28;20408;-78
2023/02/13 18:54:13;;;;;;;29.70;11.60;;;2.70;99.90;;;;;;8227251;28;20399;-80
2023/02/13 18:58:14;;;;;;;23.38;10.25;;;2.70;99.90;;;;;;8229343;28;20031;-81
2023/02/13 19:02:14;;;;;;;19.58;9.10;;;2.60;99.90;;;;;;8226797;28;20035;-81
2023/02/13 19:06:17;;;;;;;22.77;10.77;;;2.50;99.90;;;;;;8230768;28;20041;-80
2023/02/13 19:10:18;;;;;;;8.38;3.50;;;2.40;99.90;;;;;;8230624;28;20022;-80
2023/02/13 19:14:18;;;;;;;24.33;10.00;;;2.30;99.90;;;;;;8229463;28;20480;-81
2023/02/13 19:18:19;;;;;;;22.95;10.73;;;2.20;99.90;;;;;;8235883;28;20560;-80
2023/02/13 19:22:22;;;;;;;25.38;9.52;;;2.20;99.90;;;;;;8232342;28;20054;-81
2023/02/13 19:26:24;;;;;;;23.77;9.75;;;2.40;99.90;;;;;;8230213;28;20030;-81
2023/02/13 19:30:25;;;;;;;15.45;7.05;;;2.40;99.90;;;;;;8230277;28;20034;-81
2023/02/13 19:34:25;;;;;;;31.70;11.82;;;2.40;99.90;;;;;;8230729;28;20149;-80
2023/02/13 19:38:26;;;;;;;25.95;11.30;;;2.10;99.90;;;;;;8229780;28;20031;-81
2023/02/13 19:42:27;;;;;;;30.70;11.30;;;2.10;99.90;;;;;;8230658;28;20030;-81
2023/02/13 19:46:29;;;;;;;24.15;9.90;;;2.40;99.90;;;;;;8231293;28;20038;-81
2023/02/13 19:50:29;;;;;;;27.67;12.23;;;2.30;99.90;;;;;;8231794;28;20033;-79
2023/02/13 19:54:30;;;;;;;32.25;11.05;;;2.30;99.90;;;;;;8227335;28;20034;-81
2023/02/13 19:58:31;;;;;;;23.77;10.50;;;2.10;99.90;;;;;;8228195;28;20042;-80
2023/02/13 20:02:32;;;;;;;25.33;9.93;;;2.20;99.90;;;;;;8227858;28;20030;-80
2023/02/13 20:06:36;;;;;;;25.15;8.75;;;2.10;99.90;;;;;;8225920;28;20035;-80
2023/02/13 20:10:36;;;;;;;25.92;10.23;;;2.50;99.90;;;;;;8225947;28;20507;-79
2023/02/13 20:14:37;;;;;;;25.75;9.93;;;2.30;99.90;;;;;;8225835;28;20027;-79
2023/02/13 20:18:38;;;;;;;25.42;9.57;;;2.10;99.90;;;;;;8227664;28;20015;-80
2023/02/13 20:22:39;;;;;;;27.40;9.00;;;2.10;99.90;;;;;;8226852;28;20031;-81
2023/02/13 20:26:40;;;;;;;30.90;10.75;;;2.10;99.90;;;;;;8227150;28;20387;-80
2023/02/13 20:30:41;;;;;;;24.38;9.05;;;2.10;99.90;;;;;;8226320;28;20027;-80
2023/02/13 20:34:42;;;;;;;20.77;9.10;;;2.20;99.90;;;;;;8224284;28;20096;-80
2023/02/13 20:38:43;;;;;;;36.60;9.40;;;2.10;99.90;;;;;;8231441;28;20175;-79
2023/02/13 20:42:44;;;;;;;38.33;11.57;;;1.90;99.90;;;;;;8232319;28;20019;-80
2023/02/13 20:46:44;;;;;;;24.10;9.85;;;1.90;99.90;;;;;;8232263;28;20043;-79
2023/02/13 20:50:58;;;;;;;25.77;10.13;;;1.80;99.90;;;;;;8231850;28;20038;-79
2023/02/13 20:55:00;;;;;;;22.58;9.98;;;2.10;99.90;;;;;;8230716;28;20027;-80
2023/02/13 20:59:02;;;;;;;40.67;11.00;;;2.10;99.90;;;;;;8230088;28;20067;-79
2023/02/13 21:03:02;;;;;;;45.33;9.68;;;2.10;99.90;;;;;;8231718;28;20026;-78
2023/02/13 21:07:07;;;;;;;62.00;9.70;;;1.90;99.90;;;;;;8231952;28;20042;-80
2023/02/13 21:11:08;;;;;;;43.28;8.98;;;1.90;99.90;;;;;;8232750;28;20114;-78
2023/02/13 21:15:09;;;;;;;43.05;10.10;;;1.80;99.90;;;;;;8234390;28;20042;-80
2023/02/13 21:19:16;;;;;;;28.17;9.68;;;2.10;99.90;;;;;;8233777;28;20558;-81
2023/02/13 21:23:16;;;;;;;22.05;10.30;;;2.00;99.90;;;;;;8235653;28;20027;-80
2023/02/13 21:27:17;;;;;;;39.85;8.52;;;1.80;99.90;;;;;;8235451;28;20173;-80
2023/02/13 21:31:28;;;;;;;76.97;10.02;;;2.00;99.90;;;;;;8235571;28;20034;-81
2023/02/13 21:35:28;;;;;;;41.65;11.02;;;1.80;99.90;;;;;;8236738;28;20027;-80
2023/02/13 21:39:29;;;;;;;42.80;11.27;;;1.90;99.90;;;;;;8235266;28;20069;-81
2023/02/13 21:43:29;;;;;;;14.15;7.43;;;1.70;99.90;;;;;;8233889;28;20022;-80
2023/02/13 21:47:30;;;;;;;24.38;8.60;;;1.90;99.90;;;;;;8236580;28;20391;-81
2023/02/13 21:51:34;;;;;;;42.40;10.95;;;1.80;99.90;;;;;;8235134;28;20039;-80
2023/02/13 21:55:34;;;;;;;19.90;7.95;;;1.70;99.90;;;;;;8233646;28;20026;-80